sensor_id;sensor_type;location;lat;lon;timestamp;temperature;humidity
7518;DHT22;3800;48.922;9.444;2022-07-04T00:02:04;19.00;99.90
7518;DHT22;3800;48.922;9.444;2022-07-04T00:04:33;19.00;99.90
7518;DHT22;3800;48.922;9.444;2022-07-04T00:07:01;18.90;99.90
7518;DHT22;3800;48.922;9.444;2022-07-04T00:09:29;18.90;99.90
7518;DHT22;3800;48.922;9.444;2022-07-04T00:11:57;18.90;99.90
7518;DHT22;3800;48.922;9.444;2022-07-04T00:14:26;18.90;99.90
7518;DHT22;3800;48.922;9.444;2022-07-04T00:16:54;19.00;99.90
7518;DHT22;3800;48.922;9.444;2022-07-04T00:19:22;19.00;99.90
7518;DHT22;3800;48.922;9.444;2022-07-04T00:21:50;19.10;99.90
7518;DHT22;3800;48.922;9.444;2022-07-04T00:24:19;19.10;99.90
7518;DHT22;3800;48.922;9.444;2022-07-04T00:26:47;19.00;99.90
7518;DHT22;3800;48.922;9.444;2022-07-04T00:29:15;18.90;99.90
7518;DHT22;3800;48.922;9.444;2022-07-04T00:31:43;18.90;99.90
7518;DHT22;3800;48.922;9.444;2022-07-04T00:34:12;18.90;99.90
7518;DHT22;3800;48.922;9.444;2022-07-04T00:36:40;18.90;99.90
7518;DHT22;3800;48.922;9.444;2022-07-04T00:39:08;18.90;99.90
7518;DHT22;3800;48.922;9.444;2022-07-04T00:41:36;19.00;99.90
7518;DHT22;3800;48.922;9.444;2022-07-04T00:44:05;19.00;99.90
7518;DHT22;3800;48.922;9.444;2022-07-04T00:46:33;19.00;99.90
7518;DHT22;3800;48.922;9.444;2022-07-04T00:49:03;19.00;99.90
7518;DHT22;3800;48.922;9.444;2022-07-04T00:51:31;19.00;99.90
7518;DHT22;3800;48.922;9.444;2022-07-04T00:53:59;19.10;99.90
7518;DHT22;3800;48.922;9.444;2022-07-04T00:56:28;19.10;99.90
7518;DHT22;3800;48.922;9.444;2022-07-04T00:58:56;19.10;99.90
7518;DHT22;3800;48.922;9.444;2022-07-04T01:01:24;19.20;99.90
7518;DHT22;3800;48.922;9.444;2022-07-04T01:03:52;19.20;99.90
7518;DHT22;3800;48.922;9.444;2022-07-04T01:06:21;19.20;99.90
7518;DHT22;3800;48.922;9.444;2022-07-04T01:08:49;19.20;99.90
7518;DHT22;3800;48.922;9.444;2022-07-04T01:11:17;19.20;99.90
7518;DHT22;3800;48.922;9.444;2022-07-04T01:13:46;19.20;99.90
7518;DHT22;3800;48.922;9.444;2022-07-04T01:16:14;19.30;99.90
7518;DHT22;3800;48.922;9.444;2022-07-04T01:18:43;19.20;99.90
7518;DHT22;3800;48.922;9.444;2022-07-04T01:21:12;19.20;99.90
7518;DHT22;3800;48.922;9.444;2022-07-04T01:23:41;19.30;99.90
7518;DHT22;3800;48.922;9.444;2022-07-04T01:26:09;19.30;99.90
7518;DHT22;3800;48.922;9.444;2022-07-04T01:28:38;19.30;99.90
7518;DHT22;3800;48.922;9.444;2022-07-04T01:31:06;19.30;99.90
7518;DHT22;3800;48.922;9.444;2022-07-04T01:33:34;19.30;99.90
7518;DHT22;3800;48.922;9.444;2022-07-04T01:36:03;19.30;99.90
7518;DHT22;3800;48.922;9.444;2022-07-04T01:38:31;19.30;99.90
7518;DHT22;3800;48.922;9.444;2022-07-04T01:40:59;19.30;99.90
7518;DHT22;3800;48.922;9.444;2022-07-04T01:43:27;19.20;99.90
7518;DHT22;3800;48.922;9.444;2022-07-04T01:45:56;19.20;99.90
7518;DHT22;3800;48.922;9.444;2022-07-04T01:48:24;19.20;99.90
7518;DHT22;3800;48.922;9.444;2022-07-04T01:50:52;19.20;99.90
7518;DHT22;3800;48.922;9.444;2022-07-04T01:53:21;19.20;99.90
7518;DHT22;3800;48.922;9.444;2022-07-04T01:55:50;19.20;99.90
7518;DHT22;3800;48.922;9.444;2022-07-04T01:58:18;19.20;99.90
7518;DHT22;3800;48.922;9.444;2022-07-04T02:00:46;19.20;99.90
7518;DHT22;3800;48.922;9.444;2022-07-04T02:03:20;19.20;99.90
7518;DHT22;3800;48.922;9.444;2022-07-04T02:05:48;19.20;99.90
7518;DHT22;3800;48.922;9.444;2022-07-04T02:08:16;19.10;99.90
7518;DHT22;3800;48.922;9.444;2022-07-04T02:10:44;19.10;99.90
7518;DHT22;3800;48.922;9.444;2022-07-04T02:13:13;19.10;99.90
7518;DHT22;3800;48.922;9.444;2022-07-04T02:15:41;19.10;99.90
7518;DHT22;3800;48.922;9.444;2022-07-04T02:18:10;19.10;99.90
7518;DHT22;3800;48.922;9.444;2022-07-04T02:20:37;19.10;99.90
7518;DHT22;3800;48.922;9.444;2022-07-04T02:23:06;19.10;99.90
7518;DHT22;3800;48.922;9.444;2022-07-04T02:25:35;19.00;99.90
7518;DHT22;3800;48.922;9.444;2022-07-04T02:28:04;19.00;99.90
7518;DHT22;3800;48.922;9.444;2022-07-04T02:30:32;19.00;99.90
7518;DHT22;3800;48.922;9.444;2022-07-04T02:33:00;19.00;99.90
7518;DHT22;3800;48.922;9.444;2022-07-04T02:35:29;19.00;99.90
7518;DHT22;3800;48.922;9.444;2022-07-04T02:37:58;19.00;99.90
7518;DHT22;3800;48.922;9.444;2022-07-04T02:40:26;19.00;99.90
7518;DHT22;3800;48.922;9.444;2022-07-04T02:42:55;18.90;99.90
7518;DHT22;3800;48.922;9.444;2022-07-04T02:45:23;18.90;99.90
7518;DHT22;3800;48.922;9.444;2022-07-04T02:47:51;18.80;99.90
7518;DHT22;3800;48.922;9.444;2022-07-04T02:50:20;18.80;99.90
7518;DHT22;3800;48.922;9.444;2022-07-04T02:52:49;18.80;99.90
7518;DHT22;3800;48.922;9.444;2022-07-04T02:55:18;18.70;99.90
7518;DHT22;3800;48.922;9.444;2022-07-04T02:57:46;18.70;99.90
7518;DHT22;3800;48.922;9.444;2022-07-04T03:00:15;18.70;99.90
7518;DHT22;3800;48.922;9.444;2022-07-04T03:02:43;18.60;99.90
7518;DHT22;3800;48.922;9.444;2022-07-04T03:05:12;18.60;99.90
7518;DHT22;3800;48.922;9.444;2022-07-04T03:07:41;18.60;99.90
7518;DHT22;3800;48.922;9.444;2022-07-04T03:10:10;18.60;99.90
7518;DHT22;3800;48.922;9.444;2022-07-04T03:12:38;18.60;99.90
7518;DHT22;3800;48.922;9.444;2022-07-04T03:15:06;18.50;99.90
7518;DHT22;3800;48.922;9.444;2022-07-04T03:17:35;18.60;99.90
7518;DHT22;3800;48.922;9.444;2022-07-04T03:20:04;18.50;99.90
7518;DHT22;3800;48.922;9.444;2022-07-04T03:22:33;18.50;99.90
7518;DHT22;3800;48.922;9.444;2022-07-04T03:25:02;18.30;99.90
7518;DHT22;3800;48.922;9.444;2022-07-04T03:27:30;18.30;99.90
7518;DHT22;3800;48.922;9.444;2022-07-04T03:29:58;18.30;99.90
7518;DHT22;3800;48.922;9.444;2022-07-04T03:32:27;18.30;99.90
7518;DHT22;3800;48.922;9.444;2022-07-04T03:34:56;18.30;99.90
7518;DHT22;3800;48.922;9.444;2022-07-04T03:37:25;18.20;99.90
7518;DHT22;3800;48.922;9.444;2022-07-04T03:39:53;18.20;99.90
7518;DHT22;3800;48.922;9.444;2022-07-04T03:42:22;18.20;99.90
7518;DHT22;3800;48.922;9.444;2022-07-04T03:44:50;18.10;99.90
7518;DHT22;3800;48.922;9.444;2022-07-04T03:47:19;18.20;99.90
7518;DHT22;3800;48.922;9.444;2022-07-04T03:49:48;18.20;99.90
7518;DHT22;3800;48.922;9.444;2022-07-04T03:52:16;18.10;99.90
7518;DHT22;3800;48.922;9.444;2022-07-04T03:54:44;18.10;99.90
7518;DHT22;3800;48.922;9.444;2022-07-04T03:57:12;18.10;99.90
7518;DHT22;3800;48.922;9.444;2022-07-04T03:59:41;18.10;99.90
7518;DHT22;3800;48.922;9.444;2022-07-04T04:02:09;18.10;99.90
7518;DHT22;3800;48.922;9.444;2022-07-04T04:04:38;18.00;99.90
7518;DHT22;3800;48.922;9.444;2022-07-04T04:07:12;18.00;99.90
7518;DHT22;3800;48.922;9.444;2022-07-04T04:09:41;17.90;99.90
7518;DHT22;3800;48.922;9.444;2022-07-04T04:12:09;17.90;99.90
7518;DHT22;3800;48.922;9.444;2022-07-04T04:14:37;17.90;99.90
7518;DHT22;3800;48.922;9.444;2022-07-04T04:17:05;17.90;99.90
7518;DHT22;3800;48.922;9.444;2022-07-04T04:19:34;17.90;99.90
7518;DHT22;3800;48.922;9.444;2022-07-04T04:22:02;17.90;99.90
7518;DHT22;3800;48.922;9.444;2022-07-04T04:24:30;17.90;99.90
7518;DHT22;3800;48.922;9.444;2022-07-04T04:26:59;17.90;99.90
7518;DHT22;3800;48.922;9.444;2022-07-04T04:29:27;17.90;99.90
7518;DHT22;3800;48.922;9.444;2022-07-04T04:31:56;17.90;99.90
7518;DHT22;3800;48.922;9.444;2022-07-04T04:34:24;17.90;99.90
7518;DHT22;3800;48.922;9.444;2022-07-04T04:36:52;17.90;99.90
7518;DHT22;3800;48.922;9.444;2022-07-04T04:39:21;17.90;99.90
7518;DHT22;3800;48.922;9.444;2022-07-04T04:41:49;17.90;99.90
7518;DHT22;3800;48.922;9.444;2022-07-04T04:44:17;17.90;99.90
7518;DHT22;3800;48.922;9.444;2022-07-04T04:46:46;17.90;99.90
7518;DHT22;3800;48.922;9.444;2022-07-04T04:49:15;17.90;99.90
7518;DHT22;3800;48.922;9.444;2022-07-04T04:51:44;18.00;99.90
7518;DHT22;3800;48.922;9.444;2022-07-04T04:54:12;17.90;99.90
7518;DHT22;3800;48.922;9.444;2022-07-04T04:56:41;18.00;99.90
7518;DHT22;3800;48.922;9.444;2022-07-04T04:59:09;17.90;99.90
7518;DHT22;3800;48.922;9.444;2022-07-04T05:01:38;18.00;99.90
7518;DHT22;3800;48.922;9.444;2022-07-04T05:04:06;18.00;99.90
7518;DHT22;3800;48.922;9.444;2022-07-04T05:06:35;18.00;99.90
7518;DHT22;3800;48.922;9.444;2022-07-04T05:09:04;18.00;99.90
7518;DHT22;3800;48.922;9.444;2022-07-04T05:11:32;18.00;99.90
7518;DHT22;3800;48.922;9.444;2022-07-04T05:14:00;18.10;99.90
7518;DHT22;3800;48.922;9.444;2022-07-04T05:16:29;18.10;99.90
7518;DHT22;3800;48.922;9.444;2022-07-04T05:18:57;18.10;99.90
7518;DHT22;3800;48.922;9.444;2022-07-04T05:21:26;18.20;99.90
7518;DHT22;3800;48.922;9.444;2022-07-04T05:23:55;18.20;99.90
7518;DHT22;3800;48.922;9.444;2022-07-04T05:26:23;18.20;99.90
7518;DHT22;3800;48.922;9.444;2022-07-04T05:28:51;18.30;99.90
7518;DHT22;3800;48.922;9.444;2022-07-04T05:31:19;18.20;99.90
7518;DHT22;3800;48.922;9.444;2022-07-04T05:33:48;18.20;99.90
7518;DHT22;3800;48.922;9.444;2022-07-04T05:36:17;18.20;99.90
7518;DHT22;3800;48.922;9.444;2022-07-04T05:38:45;18.30;99.90
7518;DHT22;3800;48.922;9.444;2022-07-04T05:41:14;18.40;99.90
7518;DHT22;3800;48.922;9.444;2022-07-04T05:43:42;18.40;99.90
7518;DHT22;3800;48.922;9.444;2022-07-04T05:46:11;18.40;99.90
7518;DHT22;3800;48.922;9.444;2022-07-04T05:48:40;18.40;99.90
7518;DHT22;3800;48.922;9.444;2022-07-04T05:51:08;18.40;99.90
7518;DHT22;3800;48.922;9.444;2022-07-04T05:53:37;18.50;99.90
7518;DHT22;3800;48.922;9.444;2022-07-04T05:56:05;18.50;99.90
7518;DHT22;3800;48.922;9.444;2022-07-04T05:58:34;18.70;99.90
7518;DHT22;3800;48.922;9.444;2022-07-04T06:01:02;18.70;99.90
7518;DHT22;3800;48.922;9.444;2022-07-04T06:03:32;18.90;99.90
7518;DHT22;3800;48.922;9.444;2022-07-04T06:06:00;18.90;99.90
7518;DHT22;3800;48.922;9.444;2022-07-04T06:08:28;19.00;99.90
7518;DHT22;3800;48.922;9.444;2022-07-04T06:10:56;19.10;99.90
7518;DHT22;3800;48.922;9.444;2022-07-04T06:13:24;19.10;99.90
7518;DHT22;3800;48.922;9.444;2022-07-04T06:15:53;19.20;99.90
7518;DHT22;3800;48.922;9.444;2022-07-04T06:18:22;19.20;99.90
7518;DHT22;3800;48.922;9.444;2022-07-04T06:20:50;19.20;99.90
7518;DHT22;3800;48.922;9.444;2022-07-04T06:23:18;19.20;99.90
7518;DHT22;3800;48.922;9.444;2022-07-04T06:25:46;19.20;99.90
7518;DHT22;3800;48.922;9.444;2022-07-04T06:28:15;19.20;99.90
7518;DHT22;3800;48.922;9.444;2022-07-04T06:30:43;19.20;99.90
7518;DHT22;3800;48.922;9.444;2022-07-04T06:33:11;19.30;99.90
7518;DHT22;3800;48.922;9.444;2022-07-04T06:35:39;19.40;99.90
7518;DHT22;3800;48.922;9.444;2022-07-04T06:38:14;19.30;99.90
7518;DHT22;3800;48.922;9.444;2022-07-04T06:40:43;19.40;99.90
7518;DHT22;3800;48.922;9.444;2022-07-04T06:43:12;19.40;99.90
7518;DHT22;3800;48.922;9.444;2022-07-04T06:45:41;19.50;99.90
7518;DHT22;3800;48.922;9.444;2022-07-04T06:48:09;19.50;99.90
7518;DHT22;3800;48.922;9.444;2022-07-04T06:50:38;19.60;99.90
7518;DHT22;3800;48.922;9.444;2022-07-04T06:53:07;19.60;99.90
7518;DHT22;3800;48.922;9.444;2022-07-04T06:55:37;19.60;99.90
7518;DHT22;3800;48.922;9.444;2022-07-04T06:58:05;19.60;99.90
7518;DHT22;3800;48.922;9.444;2022-07-04T07:00:33;19.60;99.90
7518;DHT22;3800;48.922;9.444;2022-07-04T07:03:01;19.70;99.90
7518;DHT22;3800;48.922;9.444;2022-07-04T07:05:30;19.70;99.90
7518;DHT22;3800;48.922;9.444;2022-07-04T07:07:58;19.80;99.90
7518;DHT22;3800;48.922;9.444;2022-07-04T07:10:26;19.80;99.90
7518;DHT22;3800;48.922;9.444;2022-07-04T07:12:54;19.90;99.90
7518;DHT22;3800;48.922;9.444;2022-07-04T07:15:23;19.90;99.90
7518;DHT22;3800;48.922;9.444;2022-07-04T07:17:51;20.00;99.90
7518;DHT22;3800;48.922;9.444;2022-07-04T07:20:19;20.00;99.90
7518;DHT22;3800;48.922;9.444;2022-07-04T07:22:47;20.00;99.90
7518;DHT22;3800;48.922;9.444;2022-07-04T07:25:16;20.00;99.90
7518;DHT22;3800;48.922;9.444;2022-07-04T07:27:44;20.10;99.90
7518;DHT22;3800;48.922;9.444;2022-07-04T07:30:13;20.20;99.90
7518;DHT22;3800;48.922;9.444;2022-07-04T07:32:41;20.20;99.90
7518;DHT22;3800;48.922;9.444;2022-07-04T07:35:09;20.20;99.90
7518;DHT22;3800;48.922;9.444;2022-07-04T07:37:38;20.30;99.90
7518;DHT22;3800;48.922;9.444;2022-07-04T07:40:07;20.20;99.90
7518;DHT22;3800;48.922;9.444;2022-07-04T07:42:36;20.30;99.90
7518;DHT22;3800;48.922;9.444;2022-07-04T07:45:05;20.40;99.90
7518;DHT22;3800;48.922;9.444;2022-07-04T07:47:34;20.30;99.90
7518;DHT22;3800;48.922;9.444;2022-07-04T07:50:02;20.40;99.90
7518;DHT22;3800;48.922;9.444;2022-07-04T07:52:30;20.30;99.90
7518;DHT22;3800;48.922;9.444;2022-07-04T07:54:59;20.30;99.90
7518;DHT22;3800;48.922;9.444;2022-07-04T07:57:27;20.30;99.90
7518;DHT22;3800;48.922;9.444;2022-07-04T07:59:56;20.40;99.90
7518;DHT22;3800;48.922;9.444;2022-07-04T08:02:24;20.30;99.90
7518;DHT22;3800;48.922;9.444;2022-07-04T08:05:08;20.30;99.90
7518;DHT22;3800;48.922;9.444;2022-07-04T08:07:36;20.30;99.90
7518;DHT22;3800;48.922;9.444;2022-07-04T08:10:05;20.30;99.90
7518;DHT22;3800;48.922;9.444;2022-07-04T08:12:33;20.30;99.90
7518;DHT22;3800;48.922;9.444;2022-07-04T08:15:01;20.30;99.90
7518;DHT22;3800;48.922;9.444;2022-07-04T08:17:30;20.30;99.90
7518;DHT22;3800;48.922;9.444;2022-07-04T08:19:58;20.40;99.90
7518;DHT22;3800;48.922;9.444;2022-07-04T08:22:26;20.50;99.90
7518;DHT22;3800;48.922;9.444;2022-07-04T08:24:56;20.60;99.90
7518;DHT22;3800;48.922;9.444;2022-07-04T08:27:24;20.60;99.90
7518;DHT22;3800;48.922;9.444;2022-07-04T08:29:52;20.60;99.90
7518;DHT22;3800;48.922;9.444;2022-07-04T08:32:20;20.60;99.90
7518;DHT22;3800;48.922;9.444;2022-07-04T08:34:49;20.60;99.90
7518;DHT22;3800;48.922;9.444;2022-07-04T08:37:17;20.60;99.90
7518;DHT22;3800;48.922;9.444;2022-07-04T08:39:46;20.60;99.90
7518;DHT22;3800;48.922;9.444;2022-07-04T08:42:15;20.60;99.90
7518;DHT22;3800;48.922;9.444;2022-07-04T08:44:46;20.70;99.90
7518;DHT22;3800;48.922;9.444;2022-07-04T08:47:11;20.70;99.90
7518;DHT22;3800;48.922;9.444;2022-07-04T08:49:40;20.70;99.90
7518;DHT22;3800;48.922;9.444;2022-07-04T08:52:08;20.70;99.90
7518;DHT22;3800;48.922;9.444;2022-07-04T08:54:36;20.80;99.90
7518;DHT22;3800;48.922;9.444;2022-07-04T08:57:11;20.80;99.90
7518;DHT22;3800;48.922;9.444;2022-07-04T08:59:44;20.80;99.90
7518;DHT22;3800;48.922;9.444;2022-07-04T09:02:13;20.90;99.90
7518;DHT22;3800;48.922;9.444;2022-07-04T09:04:41;21.00;99.90
7518;DHT22;3800;48.922;9.444;2022-07-04T09:07:12;21.10;99.90
7518;DHT22;3800;48.922;9.444;2022-07-04T09:09:41;21.20;99.90
7518;DHT22;3800;48.922;9.444;2022-07-04T09:12:09;21.20;99.90
7518;DHT22;3800;48.922;9.444;2022-07-04T09:14:38;21.30;99.90
7518;DHT22;3800;48.922;9.444;2022-07-04T09:17:06;21.30;99.90
7518;DHT22;3800;48.922;9.444;2022-07-04T09:19:34;21.40;99.90
7518;DHT22;3800;48.922;9.444;2022-07-04T09:22:04;21.40;99.90
7518;DHT22;3800;48.922;9.444;2022-07-04T09:24:43;21.50;99.90
7518;DHT22;3800;48.922;9.444;2022-07-04T09:29:54;21.60;99.90
7518;DHT22;3800;48.922;9.444;2022-07-04T09:32:40;21.80;99.90
7518;DHT22;3800;48.922;9.444;2022-07-04T09:35:11;21.80;99.90
7518;DHT22;3800;48.922;9.444;2022-07-04T09:37:40;21.80;99.90
7518;DHT22;3800;48.922;9.444;2022-07-04T09:40:09;21.70;99.90
7518;DHT22;3800;48.922;9.444;2022-07-04T09:42:38;21.90;99.90
7518;DHT22;3800;48.922;9.444;2022-07-04T09:45:08;21.90;99.90
7518;DHT22;3800;48.922;9.444;2022-07-04T09:47:36;21.80;99.90
7518;DHT22;3800;48.922;9.444;2022-07-04T09:50:07;21.90;99.90
7518;DHT22;3800;48.922;9.444;2022-07-04T09:55:31;22.00;99.90
7518;DHT22;3800;48.922;9.444;2022-07-04T09:58:01;22.20;99.90
7518;DHT22;3800;48.922;9.444;2022-07-04T10:00:30;22.20;99.90
7518;DHT22;3800;48.922;9.444;2022-07-04T10:05:46;22.20;99.90
7518;DHT22;3800;48.922;9.444;2022-07-04T10:08:14;22.10;99.90
7518;DHT22;3800;48.922;9.444;2022-07-04T10:10:42;22.00;99.90
7518;DHT22;3800;48.922;9.444;2022-07-04T10:13:11;22.00;99.90
7518;DHT22;3800;48.922;9.444;2022-07-04T10:15:39;22.10;99.90
7518;DHT22;3800;48.922;9.444;2022-07-04T10:18:08;22.10;99.90
7518;DHT22;3800;48.922;9.444;2022-07-04T10:20:36;22.10;99.90
7518;DHT22;3800;48.922;9.444;2022-07-04T10:23:04;22.30;99.90
7518;DHT22;3800;48.922;9.444;2022-07-04T10:25:33;22.50;99.90
7518;DHT22;3800;48.922;9.444;2022-07-04T10:28:01;22.60;99.90
7518;DHT22;3800;48.922;9.444;2022-07-04T10:30:31;22.60;99.90
7518;DHT22;3800;48.922;9.444;2022-07-04T10:32:59;22.70;99.90
7518;DHT22;3800;48.922;9.444;2022-07-04T10:38:12;22.90;99.90
7518;DHT22;3800;48.922;9.444;2022-07-04T10:40:44;23.10;99.90
7518;DHT22;3800;48.922;9.444;2022-07-04T10:43:50;23.30;99.90
7518;DHT22;3800;48.922;9.444;2022-07-04T10:46:22;23.40;99.90
7518;DHT22;3800;48.922;9.444;2022-07-04T10:48:56;23.50;99.90
7518;DHT22;3800;48.922;9.444;2022-07-04T10:51:32;23.40;99.90
7518;DHT22;3800;48.922;9.444;2022-07-04T10:54:02;23.40;99.90
7518;DHT22;3800;48.922;9.444;2022-07-04T10:56:51;23.30;99.90
7518;DHT22;3800;48.922;9.444;2022-07-04T10:59:19;23.40;99.90
7518;DHT22;3800;48.922;9.444;2022-07-04T11:01:49;23.40;99.90
7518;DHT22;3800;48.922;9.444;2022-07-04T11:07:14;24.00;99.90
7518;DHT22;3800;48.922;9.444;2022-07-04T11:09:42;24.20;99.90
7518;DHT22;3800;48.922;9.444;2022-07-04T11:12:11;24.50;99.90
7518;DHT22;3800;48.922;9.444;2022-07-04T11:14:40;24.50;99.90
7518;DHT22;3800;48.922;9.444;2022-07-04T11:17:36;24.60;99.90
7518;DHT22;3800;48.922;9.444;2022-07-04T11:19:59;24.60;99.90
7518;DHT22;3800;48.922;9.444;2022-07-04T11:22:27;24.50;99.90
7518;DHT22;3800;48.922;9.444;2022-07-04T11:24:56;24.50;99.90
7518;DHT22;3800;48.922;9.444;2022-07-04T11:27:25;24.50;99.90
7518;DHT22;3800;48.922;9.444;2022-07-04T11:29:54;24.20;99.90
7518;DHT22;3800;48.922;9.444;2022-07-04T11:32:29;24.20;99.90
7518;DHT22;3800;48.922;9.444;2022-07-04T11:34:50;24.20;99.90
7518;DHT22;3800;48.922;9.444;2022-07-04T11:37:18;24.00;99.90
7518;DHT22;3800;48.922;9.444;2022-07-04T11:39:50;24.00;99.90
7518;DHT22;3800;48.922;9.444;2022-07-04T11:42:18;23.90;99.90
7518;DHT22;3800;48.922;9.444;2022-07-04T11:44:51;23.90;99.90
7518;DHT22;3800;48.922;9.444;2022-07-04T11:47:41;24.00;99.90
7518;DHT22;3800;48.922;9.444;2022-07-04T11:50:10;24.00;99.90
7518;DHT22;3800;48.922;9.444;2022-07-04T11:52:41;24.00;99.90
7518;DHT22;3800;48.922;9.444;2022-07-04T11:55:10;24.10;99.90
7518;DHT22;3800;48.922;9.444;2022-07-04T11:57:39;24.00;99.90
7518;DHT22;3800;48.922;9.444;2022-07-04T12:00:10;24.30;99.90
7518;DHT22;3800;48.922;9.444;2022-07-04T12:02:37;24.20;99.90
7518;DHT22;3800;48.922;9.444;2022-07-04T12:05:07;24.40;99.90
7518;DHT22;3800;48.922;9.444;2022-07-04T12:07:35;24.50;99.90
7518;DHT22;3800;48.922;9.444;2022-07-04T12:10:10;24.70;99.90
7518;DHT22;3800;48.922;9.444;2022-07-04T12:13:02;24.90;99.90
7518;DHT22;3800;48.922;9.444;2022-07-04T12:15:39;25.00;99.90
7518;DHT22;3800;48.922;9.444;2022-07-04T12:18:26;25.10;99.90
7518;DHT22;3800;48.922;9.444;2022-07-04T12:21:09;25.10;99.90
7518;DHT22;3800;48.922;9.444;2022-07-04T12:23:24;25.20;99.90
7518;DHT22;3800;48.922;9.444;2022-07-04T12:25:52;25.50;99.90
7518;DHT22;3800;48.922;9.444;2022-07-04T12:28:21;25.40;99.90
7518;DHT22;3800;48.922;9.444;2022-07-04T12:30:53;25.30;99.90
7518;DHT22;3800;48.922;9.444;2022-07-04T12:33:21;25.30;99.90
7518;DHT22;3800;48.922;9.444;2022-07-04T12:35:59;25.30;99.90
7518;DHT22;3800;48.922;9.444;2022-07-04T12:38:42;25.30;99.90
7518;DHT22;3800;48.922;9.444;2022-07-04T12:41:11;25.30;99.90
7518;DHT22;3800;48.922;9.444;2022-07-04T12:43:48;25.40;99.90
7518;DHT22;3800;48.922;9.444;2022-07-04T12:46:31;25.60;99.90
7518;DHT22;3800;48.922;9.444;2022-07-04T12:49:00;25.60;99.90
7518;DHT22;3800;48.922;9.444;2022-07-04T12:51:29;25.60;99.90
7518;DHT22;3800;48.922;9.444;2022-07-04T12:53:57;25.60;99.90
7518;DHT22;3800;48.922;9.444;2022-07-04T12:56:28;25.60;99.90
7518;DHT22;3800;48.922;9.444;2022-07-04T12:58:56;25.50;99.90
7518;DHT22;3800;48.922;9.444;2022-07-04T13:01:24;25.60;99.90
7518;DHT22;3800;48.922;9.444;2022-07-04T13:03:52;25.70;99.90
7518;DHT22;3800;48.922;9.444;2022-07-04T13:06:21;25.70;99.90
7518;DHT22;3800;48.922;9.444;2022-07-04T13:08:50;25.70;99.90
7518;DHT22;3800;48.922;9.444;2022-07-04T13:11:18;25.70;99.90
7518;DHT22;3800;48.922;9.444;2022-07-04T13:13:51;25.70;99.90
7518;DHT22;3800;48.922;9.444;2022-07-04T13:16:20;25.70;99.90
7518;DHT22;3800;48.922;9.444;2022-07-04T13:18:48;25.70;99.90
7518;DHT22;3800;48.922;9.444;2022-07-04T13:21:16;25.70;99.90
7518;DHT22;3800;48.922;9.444;2022-07-04T13:23:44;25.70;99.90
7518;DHT22;3800;48.922;9.444;2022-07-04T13:26:13;25.70;99.90
7518;DHT22;3800;48.922;9.444;2022-07-04T13:28:41;25.70;99.90
7518;DHT22;3800;48.922;9.444;2022-07-04T13:31:10;25.70;99.90
7518;DHT22;3800;48.922;9.444;2022-07-04T13:33:38;25.70;99.90
7518;DHT22;3800;48.922;9.444;2022-07-04T13:36:07;25.70;99.90
7518;DHT22;3800;48.922;9.444;2022-07-04T13:38:35;25.80;99.90
7518;DHT22;3800;48.922;9.444;2022-07-04T13:41:03;25.80;99.90
7518;DHT22;3800;48.922;9.444;2022-07-04T13:43:31;25.70;99.90
7518;DHT22;3800;48.922;9.444;2022-07-04T13:46:00;25.80;99.90
7518;DHT22;3800;48.922;9.444;2022-07-04T13:48:29;26.00;99.90
7518;DHT22;3800;48.922;9.444;2022-07-04T13:50:57;26.00;99.90
7518;DHT22;3800;48.922;9.444;2022-07-04T13:53:25;26.10;99.90
7518;DHT22;3800;48.922;9.444;2022-07-04T13:55:53;26.20;99.90
7518;DHT22;3800;48.922;9.444;2022-07-04T13:58:22;26.40;99.90
7518;DHT22;3800;48.922;9.444;2022-07-04T14:00:50;26.50;99.90
7518;DHT22;3800;48.922;9.444;2022-07-04T14:03:18;26.60;99.90
7518;DHT22;3800;48.922;9.444;2022-07-04T14:05:46;26.60;99.90
7518;DHT22;3800;48.922;9.444;2022-07-04T14:08:15;26.50;99.90
7518;DHT22;3800;48.922;9.444;2022-07-04T14:10:43;26.50;99.90
7518;DHT22;3800;48.922;9.444;2022-07-04T14:13:11;26.40;99.90
7518;DHT22;3800;48.922;9.444;2022-07-04T14:15:40;26.20;99.90
7518;DHT22;3800;48.922;9.444;2022-07-04T14:18:08;26.20;99.90
7518;DHT22;3800;48.922;9.444;2022-07-04T14:20:37;26.20;99.90
7518;DHT22;3800;48.922;9.444;2022-07-04T14:23:06;26.20;99.90
7518;DHT22;3800;48.922;9.444;2022-07-04T14:25:34;26.20;99.90
7518;DHT22;3800;48.922;9.444;2022-07-04T14:28:02;26.40;99.90
7518;DHT22;3800;48.922;9.444;2022-07-04T14:30:31;26.50;99.90
7518;DHT22;3800;48.922;9.444;2022-07-04T14:32:59;26.50;99.90
7518;DHT22;3800;48.922;9.444;2022-07-04T14:35:27;26.50;99.90
7518;DHT22;3800;48.922;9.444;2022-07-04T14:37:56;26.60;99.90
7518;DHT22;3800;48.922;9.444;2022-07-04T14:40:25;26.60;99.90
7518;DHT22;3800;48.922;9.444;2022-07-04T14:42:54;26.70;99.90
7518;DHT22;3800;48.922;9.444;2022-07-04T14:45:22;26.60;99.90
7518;DHT22;3800;48.922;9.444;2022-07-04T14:47:51;26.70;99.90
7518;DHT22;3800;48.922;9.444;2022-07-04T14:50:19;26.70;99.90
7518;DHT22;3800;48.922;9.444;2022-07-04T14:52:49;26.70;99.90
7518;DHT22;3800;48.922;9.444;2022-07-04T14:55:16;26.70;99.70
7518;DHT22;3800;48.922;9.444;2022-07-04T14:57:44;26.60;99.90
7518;DHT22;3800;48.922;9.444;2022-07-04T15:00:13;26.60;99.90
7518;DHT22;3800;48.922;9.444;2022-07-04T15:02:42;26.50;99.90
7518;DHT22;3800;48.922;9.444;2022-07-04T15:05:11;26.50;99.90
7518;DHT22;3800;48.922;9.444;2022-07-04T15:07:39;26.50;99.90
7518;DHT22;3800;48.922;9.444;2022-07-04T15:10:07;26.50;99.90
7518;DHT22;3800;48.922;9.444;2022-07-04T15:12:35;26.60;99.90
7518;DHT22;3800;48.922;9.444;2022-07-04T15:15:04;26.60;99.10
7518;DHT22;3800;48.922;9.444;2022-07-04T15:17:32;26.50;99.70
7518;DHT22;3800;48.922;9.444;2022-07-04T15:20:01;26.50;99.60
7518;DHT22;3800;48.922;9.444;2022-07-04T15:22:34;26.50;99.60
7518;DHT22;3800;48.922;9.444;2022-07-04T15:25:08;26.40;99.40
7518;DHT22;3800;48.922;9.444;2022-07-04T15:27:36;26.30;99.90
7518;DHT22;3800;48.922;9.444;2022-07-04T15:30:05;26.30;99.90
7518;DHT22;3800;48.922;9.444;2022-07-04T15:32:34;26.30;99.80
7518;DHT22;3800;48.922;9.444;2022-07-04T15:35:03;26.30;99.80
7518;DHT22;3800;48.922;9.444;2022-07-04T15:37:31;26.20;99.10
7518;DHT22;3800;48.922;9.444;2022-07-04T15:39:59;26.10;99.50
7518;DHT22;3800;48.922;9.444;2022-07-04T15:42:29;26.10;99.90
7518;DHT22;3800;48.922;9.444;2022-07-04T15:44:57;26.10;99.90
7518;DHT22;3800;48.922;9.444;2022-07-04T15:47:26;26.10;99.90
7518;DHT22;3800;48.922;9.444;2022-07-04T15:49:54;26.10;99.90
7518;DHT22;3800;48.922;9.444;2022-07-04T15:52:22;26.00;99.70
7518;DHT22;3800;48.922;9.444;2022-07-04T15:54:51;26.00;98.90
7518;DHT22;3800;48.922;9.444;2022-07-04T15:57:19;26.00;99.10
7518;DHT22;3800;48.922;9.444;2022-07-04T15:59:47;26.00;99.00
7518;DHT22;3800;48.922;9.444;2022-07-04T16:02:16;26.00;98.10
7518;DHT22;3800;48.922;9.444;2022-07-04T16:04:45;26.00;98.20
7518;DHT22;3800;48.922;9.444;2022-07-04T16:07:13;26.00;98.50
7518;DHT22;3800;48.922;9.444;2022-07-04T16:09:41;26.00;98.40
7518;DHT22;3800;48.922;9.444;2022-07-04T16:12:09;26.00;98.10
7518;DHT22;3800;48.922;9.444;2022-07-04T16:14:38;26.00;99.00
7518;DHT22;3800;48.922;9.444;2022-07-04T16:17:06;26.00;97.80
7518;DHT22;3800;48.922;9.444;2022-07-04T16:19:35;25.90;98.30
7518;DHT22;3800;48.922;9.444;2022-07-04T16:22:03;25.80;97.60
7518;DHT22;3800;48.922;9.444;2022-07-04T16:24:31;25.80;97.60
7518;DHT22;3800;48.922;9.444;2022-07-04T16:27:00;25.80;97.20
7518;DHT22;3800;48.922;9.444;2022-07-04T16:29:28;25.70;97.20